Time;durP1;ratioP1;P1;durP2;ratioP2;P2;SDS_P1;SDS_P2;PMS_P1;PMS_P2;Temp;Humidity;BMP_temperature;BMP_pressure;BME280_temperature;BME280_humidity;BME280_pressure;Samples;Min_cycle;Max_cycle;Signal;HPM_P1;HPM_P2
2022/12/13 00:01:54;;;;;;;8.87;6.90;;;13.90;99.90;;;;;;5004336;28;20183;-77
2022/12/13 00:04:24;;;;;;;10.40;6.70;;;13.90;99.90;;;;;;5004414;28;20578;-77
2022/12/13 00:06:52;;;;;;;13.40;6.33;;;13.80;99.90;;;;;;5008652;28;20706;-77
2022/12/13 00:09:20;;;;;;;10.07;6.30;;;13.80;99.90;;;;;;5042294;28;20196;-77
2022/12/13 00:11:48;;;;;;;10.33;5.57;;;13.70;99.90;;;;;;5016467;28;20202;-77
2022/12/13 00:14:14;;;;;;;9.90;6.30;;;13.70;99.90;;;;;;5032976;28;20692;-77
2022/12/13 00:16:44;;;;;;;13.07;6.40;;;13.70;99.90;;;;;;5057951;28;20276;-77
2022/12/13 00:19:11;;;;;;;12.30;6.10;;;13.60;99.90;;;;;;5026770;28;20708;-77
2022/12/13 00:21:38;;;;;;;9.30;6.23;;;13.60;99.90;;;;;;5021094;28;20199;-77
2022/12/13 00:24:06;;;;;;;13.47;6.50;;;13.60;99.90;;;;;;5019245;28;20223;-77
2022/12/13 00:26:33;;;;;;;9.83;6.43;;;13.60;99.90;;;;;;5025534;28;20206;-77
2022/12/13 00:29:04;;;;;;;13.43;6.43;;;13.50;99.90;;;;;;5024903;28;20179;-77
2022/12/13 00:31:31;;;;;;;12.33;6.40;;;13.50;99.90;;;;;;5027143;28;20184;-77
2022/12/13 00:33:59;;;;;;;12.30;6.47;;;13.50;99.90;;;;;;5025951;28;20203;-77
2022/12/13 00:36:26;;;;;;;12.83;6.53;;;13.50;99.90;;;;;;5022821;28;20189;-77
2022/12/13 00:39:01;;;;;;;12.70;6.50;;;13.40;99.90;;;;;;5007192;28;20196;-77
2022/12/13 00:41:35;;;;;;;9.80;6.73;;;13.40;99.90;;;;;;5037699;28;20553;-77
2022/12/13 00:44:03;;;;;;;11.97;7.07;;;13.40;99.90;;;;;;5014836;28;20696;-77
2022/12/13 00:46:30;;;;;;;10.53;6.87;;;13.40;99.90;;;;;;5023236;28;20187;-77
2022/12/13 00:49:00;;;;;;;12.50;6.23;;;13.50;99.90;;;;;;5033524;28;20642;-77
2022/12/13 00:51:32;;;;;;;10.90;6.27;;;13.50;99.90;;;;;;5019610;28;20254;-77
2022/12/13 00:54:00;;;;;;;11.57;6.67;;;13.50;99.90;;;;;;5018196;28;20188;-77
2022/12/13 00:56:30;;;;;;;9.03;5.50;;;13.50;99.90;;;;;;5027288;28;20183;-77
2022/12/13 00:58:57;;;;;;;12.43;6.53;;;13.40;99.90;;;;;;5029179;28;20813;-77
2022/12/13 01:01:28;;;;;;;11.13;6.20;;;13.40;99.90;;;;;;5045394;28;20279;-76
2022/12/13 01:03:58;;;;;;;9.43;6.13;;;13.40;99.90;;;;;;5025982;28;20200;-76
2022/12/13 01:06:36;;;;;;;9.43;6.53;;;13.40;99.90;;;;;;5036803;28;20238;-76
2022/12/13 01:09:04;;;;;;;9.97;5.60;;;13.40;99.90;;;;;;5025689;28;20721;-76
2022/12/13 01:11:30;;;;;;;15.47;7.80;;;13.40;99.90;;;;;;5046183;28;20188;-76
2022/12/13 01:13:57;;;;;;;16.13;6.80;;;13.40;99.90;;;;;;5030389;28;20662;-76
2022/12/13 01:16:24;;;;;;;11.23;6.37;;;13.40;99.90;;;;;;5021269;28;20657;-76
2022/12/13 01:18:50;;;;;;;11.13;7.30;;;13.30;99.90;;;;;;5027938;28;20672;-75
2022/12/13 01:21:19;;;;;;;14.00;7.30;;;13.30;99.90;;;;;;5022114;28;20234;-75
2022/12/13 01:23:45;;;;;;;13.00;7.27;;;13.30;99.90;;;;;;5032775;28;20271;-76
2022/12/13 01:26:16;;;;;;;11.33;7.10;;;13.30;99.90;;;;;;5032419;28;20180;-76
2022/12/13 01:28:44;;;;;;;10.77;6.47;;;13.30;99.90;;;;;;5029662;28;20378;-76
2022/12/13 01:31:15;;;;;;;11.17;6.53;;;13.40;99.90;;;;;;5030020;28;20470;-76
2022/12/13 01:33:42;;;;;;;9.93;6.77;;;13.30;99.90;;;;;;5033514;28;20188;-76
2022/12/13 01:36:16;;;;;;;8.67;6.17;;;13.40;99.90;;;;;;5035507;28;20181;-76
2022/12/13 01:38:42;;;;;;;11.33;6.50;;;13.30;99.90;;;;;;5008913;28;20500;-76
2022/12/13 01:41:18;;;;;;;16.67;6.80;;;13.30;99.90;;;;;;5032716;28;20185;-76
2022/12/13 01:43:47;;;;;;;11.23;7.07;;;13.30;99.90;;;;;;5050659;28;20246;-76
2022/12/13 01:46:16;;;;;;;12.33;6.83;;;13.30;99.90;;;;;;5032400;28;20188;-76
2022/12/13 01:49:06;;;;;;;14.33;6.70;;;13.40;99.90;;;;;;5052812;28;20226;-76
2022/12/13 01:52:04;;;;;;;13.63;7.00;;;13.40;99.90;;;;;;5030552;28;20188;-76
2022/12/13 01:54:40;;;;;;;11.50;6.83;;;13.50;99.90;;;;;;5026345;28;20672;-76
2022/12/13 01:57:09;;;;;;;9.27;6.50;;;13.50;99.90;;;;;;5027572;28;20247;-76
2022/12/13 01:59:39;;;;;;;11.97;7.00;;;13.60;99.90;;;;;;5033245;28;20193;-76
2022/12/13 02:02:10;;;;;;;10.67;6.57;;;13.60;99.90;;;;;;5028904;28;20526;-76
2022/12/13 02:05:14;;;;;;;9.17;5.97;;;13.60;99.90;;;;;;5044787;28;20297;-76
2022/12/13 02:07:43;;;;;;;10.50;5.80;;;13.50;99.90;;;;;;5044692;28;20214;-76
2022/12/13 02:10:11;;;;;;;12.07;5.57;;;13.50;99.90;;;;;;5012314;28;20239;-76
2022/12/13 02:12:40;;;;;;;12.13;5.97;;;13.50;99.90;;;;;;5009288;28;20214;-76
2022/12/13 02:15:17;;;;;;;11.93;6.10;;;13.60;99.90;;;;;;5040420;28;20184;-76
2022/12/13 02:18:46;;;;;;;11.87;5.80;;;13.60;99.90;;;;;;5032924;28;20268;-76
2022/12/13 02:21:16;;;;;;;21.53;7.90;;;13.70;99.90;;;;;;4990296;28;20557;-78
2022/12/13 02:24:08;;;;;;;13.83;8.27;;;13.80;99.90;;;;;;5009905;28;20212;-76
2022/12/13 02:26:59;;;;;;;14.67;8.13;;;14.00;99.90;;;;;;4989162;28;20203;-76
2022/12/13 02:30:21;;;;;;;18.93;9.37;;;14.00;99.90;;;;;;5037746;28;20184;-76
2022/12/13 02:33:21;;;;;;;17.70;9.10;;;14.00;99.90;;;;;;5025942;28;20303;-76
2022/12/13 02:36:11;;;;;;;15.43;9.70;;;14.00;99.90;;;;;;5031405;28;20549;-76
2022/12/13 02:39:06;;;;;;;18.17;12.30;;;13.90;99.90;;;;;;5030146;28;20535;-76
2022/12/13 02:42:00;;;;;;;27.33;14.53;;;13.90;99.90;;;;;;5046803;28;20654;-76
2022/12/13 02:44:39;;;;;;;24.30;14.60;;;14.00;99.90;;;;;;5017072;28;20240;-76
2022/12/13 02:47:16;;;;;;;27.57;13.80;;;14.10;99.90;;;;;;5026997;28;20192;-76
2022/12/13 02:49:53;;;;;;;21.07;13.83;;;14.10;99.90;;;;;;5037134;28;20196;-76
2022/12/13 02:52:26;;;;;;;26.67;15.13;;;14.10;99.90;;;;;;5029199;28;20583;-76
2022/12/13 02:54:55;;;;;;;29.83;15.53;;;14.10;99.90;;;;;;5045667;28;20214;-76
2022/12/13 02:57:32;;;;;;;28.87;14.70;;;14.10;99.90;;;;;;5029502;28;20200;-76
2022/12/13 03:00:09;;;;;;;25.37;15.17;;;14.00;99.90;;;;;;5055430;28;20195;-76
2022/12/13 03:03:10;;;;;;;23.50;14.93;;;14.00;99.90;;;;;;5031458;28;20220;-77
2022/12/13 03:08:51;;;;;;;27.53;16.03;;;13.90;99.90;;;;;;5042787;28;20204;-76
2022/12/13 03:11:20;;;;;;;31.57;17.17;;;13.90;99.90;;;;;;5008950;28;20947;-76
2022/12/13 03:14:08;;;;;;;28.27;15.57;;;13.90;99.90;;;;;;5024511;28;20593;-76
2022/12/13 03:16:42;;;;;;;27.87;15.57;;;13.90;99.90;;;;;;5027480;28;20192;-76
2022/12/13 03:19:11;;;;;;;24.40;15.87;;;13.80;99.90;;;;;;5027124;28;20722;-76
2022/12/13 03:21:48;;;;;;;28.63;16.80;;;13.80;99.90;;;;;;5009716;28;20550;-76
2022/12/13 03:24:22;;;;;;;30.30;17.00;;;13.80;99.90;;;;;;5029418;28;20199;-76
2022/12/13 03:26:50;;;;;;;24.77;14.70;;;13.80;99.90;;;;;;5045518;28;20231;-76
2022/12/13 03:29:17;;;;;;;19.40;12.97;;;13.80;99.90;;;;;;5030797;28;20188;-76
2022/12/13 03:31:45;;;;;;;22.60;13.30;;;13.70;99.90;;;;;;5037486;28;20188;-75
2022/12/13 03:34:11;;;;;;;20.63;11.77;;;13.70;99.90;;;;;;5039075;28;20191;-76
2022/12/13 03:36:37;;;;;;;17.17;10.70;;;13.70;99.90;;;;;;5046988;28;20303;-76
2022/12/13 03:39:04;;;;;;;22.63;12.20;;;13.70;99.90;;;;;;5025282;28;20326;-77
2022/12/13 03:41:31;;;;;;;19.80;12.37;;;13.80;99.90;;;;;;5031194;28;21774;-76
2022/12/13 03:44:06;;;;;;;20.00;12.63;;;13.80;99.90;;;;;;5005334;28;20216;-76
2022/12/13 03:46:32;;;;;;;31.33;13.90;;;13.80;99.90;;;;;;5042077;28;20602;-76
2022/12/13 03:48:59;;;;;;;27.27;14.00;;;13.80;99.90;;;;;;5035573;28;20187;-76
2022/12/13 03:51:25;;;;;;;29.83;14.80;;;13.80;99.90;;;;;;5016981;28;20415;-76
2022/12/13 03:53:52;;;;;;;22.63;13.43;;;13.90;99.90;;;;;;5039388;28;20196;-76
2022/12/13 03:56:18;;;;;;;20.70;13.90;;;13.90;99.90;;;;;;5027859;28;20654;-76
2022/12/13 03:58:44;;;;;;;21.77;13.97;;;13.90;99.90;;;;;;5052052;28;20262;-76
2022/12/13 04:01:15;;;;;;;23.17;13.27;;;13.90;99.90;;;;;;5007614;28;20522;-77
2022/12/13 04:03:45;;;;;;;24.53;14.20;;;13.90;99.90;;;;;;5013128;28;20195;-76
2022/12/13 04:06:12;;;;;;;26.63;13.73;;;13.90;99.90;;;;;;5022170;28;20267;-76
2022/12/13 04:08:39;;;;;;;20.87;12.60;;;13.90;99.90;;;;;;5018527;28;20204;-76
2022/12/13 04:13:53;;;;;;;18.47;12.33;;;13.90;99.90;;;;;;5028060;28;20189;-76
2022/12/13 04:16:22;;;;;;;19.67;14.17;;;13.90;99.90;;;;;;5024866;28;20188;-76
2022/12/13 04:18:49;;;;;;;23.40;13.63;;;13.90;99.90;;;;;;5030761;28;20192;-76
2022/12/13 04:21:16;;;;;;;21.63;14.00;;;13.90;99.90;;;;;;5018677;28;20626;-76
2022/12/13 04:23:43;;;;;;;23.73;14.63;;;13.90;99.90;;;;;;5025036;28;20227;-76
2022/12/13 04:26:09;;;;;;;23.37;14.17;;;13.90;99.90;;;;;;5028271;28;20188;-76
2022/12/13 04:28:37;;;;;;;29.17;16.47;;;13.90;99.90;;;;;;5022891;28;20188;-76
2022/12/13 04:31:04;;;;;;;24.20;15.40;;;13.90;99.90;;;;;;5031190;28;20183;-76
2022/12/13 04:33:31;;;;;;;24.83;14.80;;;13.90;99.90;;;;;;5025928;28;20192;-76
2022/12/13 04:35:57;;;;;;;24.47;15.23;;;13.90;99.90;;;;;;5029214;28;20188;-76
2022/12/13 04:38:24;;;;;;;23.70;15.97;;;13.90;99.90;;;;;;5033131;28;20192;-76
2022/12/13 04:40:51;;;;;;;29.10;16.20;;;14.00;99.90;;;;;;5031850;28;20238;-76
2022/12/13 04:43:17;;;;;;;26.17;15.73;;;14.00;99.90;;;;;;5007567;28;20216;-76
2022/12/13 04:45:43;;;;;;;26.80;16.90;;;14.00;99.90;;;;;;5036020;28;20227;-76
2022/12/13 04:48:12;;;;;;;24.97;15.73;;;14.00;99.90;;;;;;5043790;28;20198;-76
2022/12/13 04:50:38;;;;;;;27.00;15.30;;;14.10;99.90;;;;;;5028923;28;20239;-76
2022/12/13 04:53:06;;;;;;;28.20;16.30;;;14.10;99.90;;;;;;5031746;28;20192;-76
2022/12/13 04:55:33;;;;;;;34.17;16.47;;;14.20;99.90;;;;;;5015961;28;20192;-75
2022/12/13 04:57:59;;;;;;;27.77;15.53;;;14.20;99.90;;;;;;5028421;28;21001;-76
2022/12/13 05:00:25;;;;;;;24.43;14.90;;;14.20;99.90;;;;;;5007136;28;20271;-76
2022/12/13 05:02:51;;;;;;;27.63;15.63;;;14.20;99.90;;;;;;5031120;28;20192;-76
2022/12/13 05:05:19;;;;;;;26.63;15.53;;;14.20;99.90;;;;;;5028572;28;20215;-76
2022/12/13 05:07:45;;;;;;;25.63;14.97;;;14.30;99.90;;;;;;5035288;28;20256;-76
2022/12/13 05:10:12;;;;;;;28.00;14.77;;;14.30;99.90;;;;;;5033985;28;20239;-76
2022/12/13 05:12:38;;;;;;;25.10;15.57;;;14.30;99.90;;;;;;5031826;28;20199;-76
2022/12/13 05:15:06;;;;;;;26.07;14.93;;;14.30;99.90;;;;;;5016348;28;20693;-76
2022/12/13 05:17:34;;;;;;;24.43;14.93;;;14.40;99.90;;;;;;5008341;28;20211;-76
2022/12/13 05:20:01;;;;;;;24.67;15.30;;;14.40;99.90;;;;;;5028960;28;20209;-76
2022/12/13 05:22:29;;;;;;;30.20;14.80;;;14.30;99.90;;;;;;5032354;28;20184;-76
2022/12/13 05:24:55;;;;;;;27.50;14.83;;;14.30;99.90;;;;;;5015875;28;20250;-76
2022/12/13 05:27:21;;;;;;;22.13;14.23;;;14.30;99.90;;;;;;5025110;28;20211;-76
2022/12/13 05:29:48;;;;;;;23.63;14.70;;;14.40;99.90;;;;;;5033510;28;20196;-76
2022/12/13 05:32:14;;;;;;;25.77;15.17;;;14.40;99.90;;;;;;5029094;28;20188;-76
2022/12/13 05:34:41;;;;;;;23.23;14.70;;;14.40;99.90;;;;;;5026374;28;20292;-76
2022/12/13 05:37:07;;;;;;;24.80;15.13;;;14.40;99.90;;;;;;5048359;28;20283;-76
2022/12/13 05:39:35;;;;;;;29.27;13.67;;;14.50;99.90;;;;;;5032346;28;20641;-76
2022/12/13 05:42:01;;;;;;;21.00;14.00;;;14.50;99.90;;;;;;5027239;28;20196;-76
2022/12/13 05:44:28;;;;;;;23.83;13.60;;;14.50;99.90;;;;;;5036402;28;20216;-76
2022/12/13 05:46:55;;;;;;;25.80;14.50;;;14.50;99.90;;;;;;5032091;28;20225;-76
2022/12/13 05:49:21;;;;;;;21.73;13.53;;;14.50;99.90;;;;;;5029361;28;20188;-76
2022/12/13 05:51:48;;;;;;;24.43;13.80;;;14.50;99.90;;;;;;5013313;28;20196;-76
2022/12/13 05:54:14;;;;;;;20.13;13.30;;;14.60;99.90;;;;;;5027828;28;20199;-76
2022/12/13 05:56:40;;;;;;;23.87;14.07;;;14.60;99.90;;;;;;5013060;28;20196;-76
2022/12/13 05:59:07;;;;;;;20.73;14.10;;;14.70;99.90;;;;;;5006278;28;20698;-76
2022/12/13 06:01:34;;;;;;;23.57;13.20;;;14.70;99.90;;;;;;5014939;28;20199;-77
2022/12/13 06:04:00;;;;;;;22.73;13.63;;;14.70;99.90;;;;;;5035994;28;20244;-76
2022/12/13 06:06:27;;;;;;;22.20;13.33;;;14.80;99.90;;;;;;5033814;28;20177;-76
2022/12/13 06:08:53;;;;;;;28.27;14.70;;;14.90;99.90;;;;;;5023307;28;20208;-76
2022/12/13 06:11:20;;;;;;;24.77;13.43;;;14.90;99.90;;;;;;5013861;28;20641;-76
2022/12/13 06:13:51;;;;;;;19.07;12.27;;;15.00;99.90;;;;;;5029871;28;20200;-76
2022/12/13 06:16:18;;;;;;;24.50;13.80;;;15.10;99.90;;;;;;5025666;28;20262;-76
2022/12/13 06:18:44;;;;;;;23.20;13.30;;;15.10;99.90;;;;;;5014544;28;20567;-76
2022/12/13 06:21:10;;;;;;;21.37;13.30;;;15.20;99.90;;;;;;5035413;28;20188;-76
2022/12/13 06:23:36;;;;;;;22.13;13.73;;;15.20;99.90;;;;;;5044266;28;20202;-76
2022/12/13 06:26:06;;;;;;;25.50;13.27;;;15.20;99.90;;;;;;5042446;28;20200;-76
2022/12/13 06:28:32;;;;;;;21.10;13.80;;;15.30;99.90;;;;;;5027578;28;20199;-77
2022/12/13 06:31:01;;;;;;;22.30;14.33;;;15.40;99.90;;;;;;5029814;28;20649;-76
2022/12/13 06:33:28;;;;;;;26.17;13.17;;;15.50;99.90;;;;;;5043344;28;20283;-76
2022/12/13 06:35:57;;;;;;;22.10;13.00;;;15.50;99.90;;;;;;5032672;28;20558;-76
2022/12/13 06:38:24;;;;;;;22.13;13.63;;;15.50;99.90;;;;;;5027387;28;20192;-76
2022/12/13 06:40:52;;;;;;;21.67;12.33;;;15.50;99.90;;;;;;5024066;28;20199;-76
2022/12/13 06:43:21;;;;;;;22.43;12.40;;;15.50;99.90;;;;;;5015732;28;20307;-76
2022/12/13 06:45:47;;;;;;;19.80;12.47;;;15.60;99.90;;;;;;5031803;28;21807;-76
2022/12/13 06:48:14;;;;;;;23.53;12.70;;;15.60;99.90;;;;;;5019568;28;20711;-76
2022/12/13 06:50:40;;;;;;;19.87;12.27;;;15.60;99.90;;;;;;5020119;28;20188;-77
2022/12/13 06:53:07;;;;;;;23.20;13.80;;;15.60;99.90;;;;;;5001075;28;20183;-76
2022/12/13 06:55:35;;;;;;;22.40;13.70;;;15.60;99.90;;;;;;5015437;28;20518;-76
2022/12/13 06:58:01;;;;;;;20.07;13.07;;;15.60;99.90;;;;;;5024590;28;20218;-77
2022/12/13 07:00:28;;;;;;;26.37;14.90;;;15.60;99.90;;;;;;5017018;28;20197;-76
2022/12/13 07:02:54;;;;;;;22.17;13.60;;;15.70;99.90;;;;;;5021382;28;20249;-77
2022/12/13 07:05:21;;;;;;;29.83;14.97;;;15.70;99.90;;;;;;5006899;28;20214;-76
2022/12/13 07:07:48;;;;;;;21.77;14.00;;;15.70;99.90;;;;;;5028773;28;20642;-77
2022/12/13 07:10:14;;;;;;;21.40;14.80;;;15.80;99.90;;;;;;5020866;28;20187;-76
2022/12/13 07:12:40;;;;;;;24.43;14.50;;;15.80;99.90;;;;;;5014469;28;20197;-76
2022/12/13 07:15:08;;;;;;;23.43;15.17;;;15.70;99.90;;;;;;5021755;28;20200;-76
2022/12/13 07:17:34;;;;;;;25.37;14.93;;;15.80;99.90;;;;;;5020846;28;20562;-77
2022/12/13 07:20:06;;;;;;;22.17;14.07;;;15.70;99.90;;;;;;5008076;28;20199;-76
2022/12/13 07:22:34;;;;;;;21.90;13.90;;;15.70;99.90;;;;;;5029429;28;20266;-76
2022/12/13 07:25:03;;;;;;;22.87;14.13;;;15.80;99.90;;;;;;5030069;28;20346;-76
2022/12/13 07:27:30;;;;;;;21.13;13.77;;;15.80;99.90;;;;;;5023637;28;20663;-76
2022/12/13 07:29:56;;;;;;;28.93;15.37;;;15.80;99.90;;;;;;5026061;28;20410;-76
2022/12/13 07:32:23;;;;;;;29.03;14.97;;;15.80;99.90;;;;;;5033737;28;20629;-76
2022/12/13 07:34:49;;;;;;;21.87;14.37;;;15.80;99.90;;;;;;5027754;28;20184;-76
2022/12/13 07:37:16;;;;;;;22.77;13.90;;;15.90;99.90;;;;;;5019859;28;20193;-76
2022/12/13 07:39:42;;;;;;;21.97;14.53;;;15.90;99.90;;;;;;5025752;28;20964;-76
2022/12/13 07:42:08;;;;;;;20.17;14.37;;;16.00;99.90;;;;;;5015770;28;20227;-76
2022/12/13 07:44:34;;;;;;;25.50;14.50;;;15.90;99.90;;;;;;5011075;28;20251;-76
2022/12/13 07:47:01;;;;;;;21.67;14.80;;;15.90;99.90;;;;;;5011522;28;20216;-76
2022/12/13 07:49:27;;;;;;;25.80;15.13;;;15.90;99.90;;;;;;4998744;28;20189;-76
2022/12/13 07:51:53;;;;;;;25.20;14.23;;;16.00;99.90;;;;;;5033734;28;20195;-77
2022/12/13 07:54:20;;;;;;;22.37;14.70;;;16.00;99.90;;;;;;5009073;28;20334;-76
2022/12/13 07:56:46;;;;;;;21.10;14.37;;;16.00;99.90;;;;;;5024872;28;20541;-76
2022/12/13 07:59:12;;;;;;;26.30;14.30;;;15.90;99.90;;;;;;5044242;28;20189;-76
2022/12/13 08:01:40;;;;;;;19.47;13.67;;;16.00;99.90;;;;;;5052448;28;20234;-76
2022/12/13 08:04:07;;;;;;;21.33;14.60;;;15.90;99.90;;;;;;5005382;28;20216;-76
2022/12/13 08:06:37;;;;;;;27.13;14.93;;;15.90;99.90;;;;;;5015812;28;20602;-76
2022/12/13 08:09:05;;;;;;;22.17;14.07;;;15.90;99.90;;;;;;5029968;28;20609;-77
2022/12/13 08:11:31;;;;;;;23.73;14.00;;;15.90;99.90;;;;;;5016564;28;20323;-77
2022/12/13 08:13:57;;;;;;;27.33;14.80;;;15.90;99.90;;;;;;5018675;28;20631;-76
2022/12/13 08:16:23;;;;;;;21.87;14.73;;;15.90;99.90;;;;;;5017721;28;20238;-76
2022/12/13 08:18:49;;;;;;;22.63;14.33;;;15.90;99.90;;;;;;5034513;28;20605;-77
2022/12/13 08:21:16;;;;;;;23.27;16.60;;;15.90;99.90;;;;;;5004363;28;20184;-76
2022/12/13 08:23:42;;;;;;;24.53;14.80;;;16.00;99.90;;;;;;5013829;28;20638;-76
2022/12/13 08:26:09;;;;;;;21.77;14.07;;;15.90;99.90;;;;;;5033897;28;20189;-77
2022/12/13 08:28:36;;;;;;;22.47;13.73;;;15.90;99.90;;;;;;5033423;28;21794;-76
2022/12/13 08:31:13;;;;;;;25.43;14.93;;;16.00;99.90;;;;;;5017796;28;20195;-76
2022/12/13 08:33:41;;;;;;;22.20;13.90;;;16.00;99.90;;;;;;5003010;28;20282;-76
2022/12/13 08:36:16;;;;;;;23.27;14.10;;;16.00;99.90;;;;;;5007149;28;20678;-76
2022/12/13 08:38:43;;;;;;;21.13;13.77;;;16.00;99.90;;;;;;5018213;28;20234;-76
2022/12/13 08:41:11;;;;;;;22.03;14.50;;;16.00;99.90;;;;;;5049361;28;20196;-76
2022/12/13 08:43:38;;;;;;;20.60;13.93;;;16.00;99.90;;;;;;5024525;28;20268;-76
2022/12/13 08:46:05;;;;;;;26.43;14.70;;;16.00;99.90;;;;;;5033600;28;20243;-76
2022/12/13 08:48:32;;;;;;;28.83;14.83;;;16.00;99.90;;;;;;5028881;28;20198;-76
2022/12/13 08:51:05;;;;;;;22.77;13.93;;;16.00;99.90;;;;;;5022531;28;20713;-77
2022/12/13 08:53:32;;;;;;;29.20;15.17;;;16.00;99.90;;;;;;5024178;28;20913;-76
2022/12/13 08:56:06;;;;;;;24.47;15.10;;;15.90;99.90;;;;;;5044623;28;20192;-76
2022/12/13 08:58:33;;;;;;;24.73;14.37;;;16.00;99.90;;;;;;5003992;28;20776;-76
2022/12/13 09:00:59;;;;;;;22.70;14.40;;;16.00;99.90;;;;;;5016551;28;20200;-76
2022/12/13 09:03:25;;;;;;;22.13;14.97;;;15.90;99.90;;;;;;5011152;28;20275;-76
2022/12/13 09:05:52;;;;;;;20.43;14.30;;;15.90;99.90;;;;;;5019822;28;20689;-76
2022/12/13 09:08:18;;;;;;;25.57;15.63;;;15.90;99.90;;;;;;5026784;28;20228;-76
2022/12/13 09:10:45;;;;;;;20.53;13.10;;;15.90;99.90;;;;;;5017113;28;20359;-76
2022/12/13 09:13:12;;;;;;;24.00;13.73;;;15.90;99.90;;;;;;5043982;28;20684;-77
2022/12/13 09:15:39;;;;;;;21.40;13.60;;;16.00;99.90;;;;;;5001907;28;20196;-76
2022/12/13 09:18:06;;;;;;;22.97;14.40;;;16.00;99.90;;;;;;5044470;28;20192;-76
2022/12/13 09:20:36;;;;;;;25.67;14.90;;;16.00;99.90;;;;;;5031947;28;20200;-76
2022/12/13 09:23:03;;;;;;;22.20;14.10;;;16.10;99.90;;;;;;5024108;28;20894;-76
2022/12/13 09:25:31;;;;;;;22.33;14.83;;;16.20;99.90;;;;;;5021640;28;20215;-76
2022/12/13 09:28:00;;;;;;;24.57;15.50;;;16.20;99.90;;;;;;5011598;28;20238;-77
2022/12/13 09:30:27;;;;;;;21.73;15.30;;;16.20;99.90;;;;;;5030971;28;21004;-76
2022/12/13 09:32:55;;;;;;;23.90;14.57;;;16.30;99.90;;;;;;5022177;28;20211;-76
2022/12/13 09:35:22;;;;;;;23.87;15.00;;;16.30;99.90;;;;;;5016980;28;20219;-76
2022/12/13 09:37:48;;;;;;;22.73;14.43;;;16.50;99.90;;;;;;5026961;28;20196;-76
2022/12/13 09:40:23;;;;;;;23.13;13.93;;;16.50;99.90;;;;;;5020058;28;20239;-76
2022/12/13 09:42:56;;;;;;;28.37;13.43;;;16.50;99.90;;;;;;5028618;28;20195;-76
2022/12/13 09:45:23;;;;;;;19.20;13.23;;;16.40;99.90;;;;;;5021080;28;20231;-76
2022/12/13 09:47:52;;;;;;;19.30;12.63;;;16.40;99.90;;;;;;5010909;28;20228;-77
2022/12/13 09:50:26;;;;;;;20.37;12.43;;;16.40;99.90;;;;;;5007994;28;20275;-76
2022/12/13 09:52:55;;;;;;;19.43;12.23;;;16.30;99.90;;;;;;5006958;28;20509;-76
2022/12/13 09:55:49;;;;;;;19.80;13.40;;;16.30;99.90;;;;;;5030780;28;20199;-76
2022/12/13 09:58:27;;;;;;;26.87;13.43;;;16.30;99.90;;;;;;5026681;28;20189;-76
2022/12/13 10:00:57;;;;;;;21.73;13.13;;;16.40;99.90;;;;;;5020215;28;20838;-76
2022/12/13 10:03:24;;;;;;;20.27;13.07;;;16.40;99.90;;;;;;5023368;28;20199;-76
2022/12/13 10:06:07;;;;;;;21.90;13.33;;;16.40;99.90;;;;;;5029129;28;20208;-76
2022/12/13 10:08:50;;;;;;;21.60;12.53;;;16.40;99.90;;;;;;5021690;28;20208;-76
2022/12/13 10:11:19;;;;;;;24.73;13.27;;;16.50;99.90;;;;;;5028094;28;20283;-76
2022/12/13 10:13:56;;;;;;;20.50;13.27;;;16.50;99.90;;;;;;5007201;28;20202;-76
2022/12/13 10:16:34;;;;;;;21.40;14.20;;;16.50;99.90;;;;;;5025608;28;20196;-77
2022/12/13 10:19:12;;;;;;;27.10;14.17;;;16.60;99.90;;;;;;5034068;28;20204;-76
2022/12/13 10:21:43;;;;;;;20.70;14.10;;;16.60;99.90;;;;;;5004635;28;20196;-76
2022/12/13 10:24:30;;;;;;;28.67;14.83;;;16.60;99.90;;;;;;5020554;28;20224;-77
2022/12/13 10:27:13;;;;;;;21.97;14.40;;;16.60;99.90;;;;;;5019963;28;20195;-77
2022/12/13 10:30:07;;;;;;;23.00;14.20;;;16.70;99.90;;;;;;5059439;28;20195;-77
2022/12/13 10:32:59;;;;;;;26.20;16.80;;;16.80;99.90;;;;;;5023527;28;20211;-77
2022/12/13 10:35:38;;;;;;;22.67;15.37;;;17.00;99.90;;;;;;5016556;28;20193;-77
2022/12/13 10:38:13;;;;;;;24.63;15.37;;;17.00;99.90;;;;;;5019599;28;20576;-77
2022/12/13 10:40:44;;;;;;;28.83;16.37;;;17.00;99.90;;;;;;5025896;28;20218;-77
2022/12/13 10:43:17;;;;;;;24.63;14.73;;;17.00;99.90;;;;;;5016883;28;20200;-77
2022/12/13 10:46:03;;;;;;;22.43;14.77;;;17.00;99.90;;;;;;5016990;28;20255;-77
2022/12/13 10:48:37;;;;;;;22.23;14.30;;;16.90;99.90;;;;;;5027907;28;20196;-77
2022/12/13 10:51:12;;;;;;;26.27;15.47;;;16.90;99.90;;;;;;5001949;28;20188;-77
2022/12/13 10:53:54;;;;;;;27.43;16.77;;;16.90;99.90;;;;;;5052237;28;20191;-76
2022/12/13 10:56:31;;;;;;;21.37;14.33;;;16.90;99.90;;;;;;5025816;28;20199;-76
2022/12/13 10:59:17;;;;;;;22.23;14.67;;;16.80;99.90;;;;;;5009164;28;20188;-76
2022/12/13 11:01:44;;;;;;;28.90;15.87;;;16.80;99.90;;;;;;5019250;28;20193;-76
2022/12/13 11:04:28;;;;;;;25.20;15.60;;;16.90;99.90;;;;;;5019905;28;20224;-76
2022/12/13 11:06:57;;;;;;;21.87;14.90;;;16.90;99.90;;;;;;5021482;28;20660;-76
2022/12/13 11:09:34;;;;;;;22.80;15.33;;;17.10;99.90;;;;;;5015547;28;20282;-76
2022/12/13 11:12:10;;;;;;;24.20;14.63;;;17.20;99.90;;;;;;5016862;28;20853;-76
2022/12/13 11:14:48;;;;;;;18.60;12.67;;;17.20;99.90;;;;;;5033010;28;20196;-76
2022/12/13 11:17:21;;;;;;;19.97;12.07;;;17.30;99.90;;;;;;5022248;28;20192;-76
2022/12/13 11:19:59;;;;;;;17.47;10.47;;;17.30;99.90;;;;;;5016042;28;20270;-76
2022/12/13 11:22:36;;;;;;;19.27;11.27;;;17.40;99.90;;;;;;5051143;28;20275;-76
2022/12/13 11:25:34;;;;;;;19.17;11.40;;;17.50;99.90;;;;;;5023591;28;20223;-76
2022/12/13 11:28:50;;;;;;;16.43;11.03;;;17.60;99.90;;;;;;5013610;28;20201;-77
2022/12/13 11:31:27;;;;;;;23.97;11.63;;;17.50;99.90;;;;;;5022643;28;20720;-76
2022/12/13 11:34:18;;;;;;;18.00;10.90;;;17.40;99.90;;;;;;5013630;28;20646;-76
2022/12/13 11:36:56;;;;;;;21.30;11.70;;;17.30;99.90;;;;;;5047670;28;20188;-76
2022/12/13 11:39:53;;;;;;;23.40;12.57;;;17.30;99.90;;;;;;5018698;28;20191;-76
2022/12/13 11:42:39;;;;;;;21.77;11.87;;;17.40;99.90;;;;;;5017202;28;20216;-77
2022/12/13 11:45:30;;;;;;;18.63;11.57;;;17.50;99.90;;;;;;5019596;28;20235;-77
2022/12/13 11:48:07;;;;;;;20.87;11.53;;;17.70;99.90;;;;;;5019913;28;20191;-77
2022/12/13 11:50:35;;;;;;;19.90;10.80;;;17.80;99.90;;;;;;4998898;28;20223;-77
2022/12/13 11:53:26;;;;;;;21.43;11.20;;;17.80;99.90;;;;;;5017527;28;20224;-77
2022/12/13 11:56:00;;;;;;;21.70;10.70;;;17.90;99.90;;;;;;5016433;28;20216;-76
2022/12/13 11:58:40;;;;;;;18.10;10.63;;;18.00;99.90;;;;;;5020751;28;20188;-77
2022/12/13 12:01:16;;;;;;;18.80;11.00;;;17.90;99.90;;;;;;5021529;28;20192;-77
2022/12/13 12:04:06;;;;;;;19.00;11.60;;;17.80;99.90;;;;;;5035609;28;20195;-77
2022/12/13 12:06:45;;;;;;;20.90;11.80;;;17.80;99.90;;;;;;5016962;28;20196;-76
2022/12/13 12:09:20;;;;;;;18.30;12.37;;;17.80;99.90;;;;;;5018646;28;20201;-77
2022/12/13 12:12:03;;;;;;;23.47;12.33;;;17.90;99.90;;;;;;5025634;28;20416;-77
2022/12/13 12:15:06;;;;;;;20.00;12.57;;;17.80;99.90;;;;;;5017916;28;20192;-77
2022/12/13 12:17:33;;;;;;;19.57;13.37;;;17.90;99.90;;;;;;5013273;28;20207;-77
2022/12/13 12:19:59;;;;;;;24.27;13.27;;;17.90;99.90;;;;;;5032776;28;20681;-77
2022/12/13 12:22:57;;;;;;;18.73;13.03;;;17.90;99.90;;;;;;5023104;28;20839;-77
2022/12/13 12:25:41;;;;;;;16.97;10.77;;;17.90;99.90;;;;;;5043102;28;20204;-77
2022/12/13 12:28:31;;;;;;;15.90;9.37;;;17.90;99.90;;;;;;5039276;28;20767;-77
2022/12/13 12:31:21;;;;;;;15.77;8.83;;;17.80;99.90;;;;;;5029658;28;20261;-77
2022/12/13 12:34:04;;;;;;;15.00;8.57;;;17.80;99.90;;;;;;5022059;28;20184;-76
2022/12/13 12:36:54;;;;;;;13.50;8.13;;;17.80;99.90;;;;;;5023135;28;20283;-77
2022/12/13 12:39:26;;;;;;;14.30;8.93;;;17.80;99.90;;;;;;5016059;28;20196;-76
2022/12/13 12:42:10;;;;;;;15.17;9.33;;;17.80;99.90;;;;;;5020486;28;20308;-77
2022/12/13 12:45:16;;;;;;;14.53;10.03;;;17.70;99.90;;;;;;5024101;28;20224;-76
2022/12/13 12:48:16;;;;;;;17.10;9.93;;;17.70;99.90;;;;;;5017760;28;20188;-76
2022/12/13 12:51:45;;;;;;;15.57;9.53;;;17.80;99.90;;;;;;5023475;28;20183;-76
2022/12/13 12:55:02;;;;;;;19.33;9.40;;;17.80;99.90;;;;;;4941963;29;20189;-77
2022/12/13 12:57:48;;;;;;;18.27;10.00;;;17.80;99.90;;;;;;4973041;28;20189;-77
2022/12/13 13:00:21;;;;;;;17.83;9.13;;;17.80;99.90;;;;;;5027260;28;20192;-76
2022/12/13 13:03:11;;;;;;;16.73;8.60;;;17.80;99.90;;;;;;5025961;28;20194;-76
2022/12/13 13:06:05;;;;;;;15.60;8.70;;;17.80;99.90;;;;;;5027068;28;20236;-76